Nearby METAR Reports

 

KPMD - Palmdale, California, USA
Distance from station: NNE 12mi, 19km
Updated: Thu, 19-Apr-2018 2:53pm PDT
Few Clouds
Few Clouds
 Wind from WNW
Wind: WNW 31 mph , 50 km/h, Gust: 44 mph , 70 km/h
Temperature: 57°F , 14°C
Dew Point: 28°F , -2°C
Humidity: 33%
Barometer: 30.00 inHg , 1015.9 hPa
Clouds: Few Clouds
Visibility: 9 miles , 14 km
Cloud details: Few Clouds 5500 ft
2018/04/19 21:53 KPMD 192153Z AUTO 29027G38KT 9SM FEW055 14/M02 A3000 RMK AO2 PK WND 28041/2116 SLP151 T01441022
KWJF - Lancaster/Fox, California, USA
Distance from station: N 17mi, 27km
Updated: Thu, 19-Apr-2018 2:56pm PDT
Few Clouds
Few Clouds
 Wind from W
Wind: W 26 mph , 43 km/h, Gust: 38 mph , 61 km/h
Temperature: 57°F , 14°C
Dew Point: 27°F , -3°C
Humidity: 31%
Barometer: 30.00 inHg , 1015.9 hPa
Clouds: Few Clouds
Visibility: 10 miles , 16 km
Cloud details: Few Clouds 5500 ft
2018/04/19 21:56 KWJF 192156Z 28023G33KT 10SM FEW055 14/M03 A3000 RMK AO2 PK WND 30037/2134 SLP161 T01441028
 
KMWS - Mount Wilson, California, USA
Distance from station: SSE 18mi, 30km
Updated: Wed, 13-May-2015 6:45am PDT
NOT Current

 Wind from S
Wind: S 3 mph , 6 km/h, Gust: 5 mph , 7 km/h
Temperature: 43°F , 6°C
Dew Point: -0°F , -18°C
Humidity: 16%
2015/05/13 13:45 KMWS 131345Z 18003G04KT 06/M18 RMK SNOW DEPTH 1.00
KWHP - La / Whiteman, California, USA
Distance from station: SW 21mi, 34km
Updated: Thu, 19-Apr-2018 3:55pm PDT
Mostly cloudy
Mostly cloudy
 Wind from SSE
Wind: SSE 6 mph , 9 km/h
Temperature: 61°F , 16°C
Dew Point: 39°F , 4°C
Humidity: 45%
Barometer: 30.02 inHg , 1016.6 hPa
Clouds: Mostly cloudy
Visibility: 10 miles , 16 km
Cloud details: Mostly cloudy 5000 ft
2018/04/19 22:55 KWHP 192255Z 15005KT 10SM BKN050 16/04 A3002
 
KBUR - Burbank, California, USA
Distance from station: SSW 22mi, 35km
Updated: Thu, 19-Apr-2018 3:53pm PDT
Partly cloudy
Partly cloudy
 Wind from SSW
Wind: SSW 14 mph , 22 km/h
Temperature: 64°F , 18°C
Dew Point: 41°F , 5°C
Humidity: 43%
Barometer: 29.99 inHg , 1015.6 hPa
Clouds: Partly cloudy
Visibility: 10 miles , 16 km
Cloud details: Few Clouds 6500 ft
Partly cloudy 8000 ft
2018/04/19 22:53 KBUR 192253Z 20012KT 10SM FEW065 SCT080 18/05 A2999 RMK AO2 SLP146 T01780050
KVNY - Van Nuys, California, USA
Distance from station: SW 25mi, 40km
Updated: Thu, 19-Apr-2018 3:51pm PDT
Mostly cloudy
Mostly cloudy
 Wind from S
Wind: S 10 mph , 17 km/h
Temperature: 61°F , 16°C
Dew Point: 39°F , 4°C
Humidity: 45%
Barometer: 29.98 inHg , 1015.2 hPa
Clouds: Mostly cloudy
Visibility: 10 miles , 16 km
Cloud details: Mostly cloudy 5000 ft
Mostly cloudy 6500 ft
2018/04/19 22:51 KVNY 192251Z 18009KT 10SM BKN050 BKN065 16/04 A2998 RMK AO2 SLP151 T01560044
 
KEDW - Edwards Afb, California, USA
Distance from station: NNE 33mi, 53km
Updated: Thu, 19-Apr-2018 3:19pm PDT
Partly cloudy
Partly cloudy
 Wind from SW
Wind: SW 16 mph , 26 km/h, Gust: 23 mph , 37 km/h
Temperature: 57°F , 14°C
Dew Point: 25°F , -4°C
Humidity: 29%
Barometer: 29.95 inHg , 1014.2 hPa
Clouds: Partly cloudy
Visibility: 50 miles , 80 km
Cloud details: Partly cloudy 6000 ft
Partly cloudy 25000 ft
2018/04/19 22:19 KEDW 192219Z 22014G20KT 50SM SCT060 SCT250 14/M04 A2995 RMK SLP138
KSMO - Santa Monica, California, USA
Distance from station: SSW 35mi, 57km
Updated: Thu, 19-Apr-2018 3:51pm PDT
Clear
Clear
 Wind from WSW
Wind: WSW 14 mph , 22 km/h, Gust: 21 mph , 33 km/h
Temperature: 59°F , 15°C
Dew Point: 39°F , 4°C
Humidity: 48%
Barometer: 30.02 inHg , 1016.6 hPa
Clouds: Clear
Visibility: 10 miles , 16 km
2018/04/19 22:51 KSMO 192251Z 25012G18KT 10SM CLR 15/04 A3002 RMK AO2 SLP164 T01500044
 
KLAX - Los Angeles, California, USA
Distance from station: SSW 39mi, 63km
Updated: Thu, 19-Apr-2018 3:53pm PDT
Few Clouds
Few Clouds
 Wind from WSW
Wind: WSW 17 mph , 28 km/h
Temperature: 61°F , 16°C
Dew Point: 45°F , 7°C
Humidity: 55%
Barometer: 30.03 inHg , 1016.9 hPa
Clouds: Few Clouds
Visibility: 10 miles , 16 km
Cloud details: Few Clouds 6000 ft
Few Clouds 25000 ft
2018/04/19 22:53 KLAX 192253Z 25015KT 10SM FEW060 FEW250 16/07 A3003 RMK AO2 SLP167 T01610067
KMHV - Mojave, California, USA
Distance from station: N 41mi, 66km
Updated: Thu, 19-Apr-2018 3:20pm PDT
Clear
Clear
 Wind from W
Wind: W 45 mph , 72 km/h, Gust: 56 mph , 91 km/h
Temperature: 55°F , 13°C
Dew Point: 27°F , -3°C
Humidity: 33%
Barometer: 29.87 inHg , 1011.5 hPa
Clouds: Clear
Visibility: 10 miles , 16 km
2018/04/19 22:20 KMHV 192220Z AUTO 28039G49KT 10SM CLR 13/M03 A2987 RMK A01
 
KFUL - Fullerton, California, USA
Distance from station: SSE 44mi, 70km
Updated: Thu, 19-Apr-2018 3:53pm PDT
Few Clouds
Few Clouds
 Wind from S
Wind: S 10 mph , 17 km/h
Temperature: 64°F , 18°C
Dew Point: 41°F , 5°C
Humidity: 43%
Barometer: 30.00 inHg , 1015.9 hPa
Clouds: Few Clouds
Visibility: 10 miles , 16 km
Cloud details: Few Clouds 5000 ft
2018/04/19 22:53 KFUL 192253Z 19009KT 150V210 10SM FEW050 18/05 A3000 RMK AO2 SLP157 T01830050
KONT - Ontario, California, USA
Distance from station: SE 45mi, 72km
Updated: Thu, 19-Apr-2018 3:53pm PDT
Mostly cloudy
Mostly cloudy
 Wind from WNW
Wind: WNW 8 mph , 13 km/h
Temperature: 61°F , 16°C
Dew Point: 39°F , 4°C
Humidity: 45%
Barometer: 30.00 inHg , 1015.9 hPa
Clouds: Mostly cloudy
Visibility: 10 miles , 16 km
Cloud details: Few Clouds 4000 ft
Partly cloudy 5500 ft
Mostly cloudy 6500 ft
2018/04/19 22:53 KONT 192253Z 29007KT 10SM FEW040 SCT055 BKN065 16/04 A3000 RMK AO2 SLP156 T01560044
 
KLGB - Long Beach, California, USA
Distance from station: S 46mi, 74km
Updated: Thu, 19-Apr-2018 3:53pm PDT
Clear
Clear
 Wind from WNW
Wind: WNW 17 mph , 28 km/h, Gust: 21 mph , 33 km/h
Temperature: 66°F , 19°C
Dew Point: 39°F , 4°C
Humidity: 37%
Barometer: 30.01 inHg , 1016.3 hPa
Clouds: Clear
Visibility: 10 miles , 16 km
2018/04/19 22:53 KLGB 192253Z 29015G18KT 10SM CLR 19/04 A3001 RMK AO2 SLP162 T01890044
KVCV - Victorville, California, USA
Distance from station: E 46mi, 74km
Updated: Thu, 19-Apr-2018 3:55pm PDT
Clear
Clear
 Wind from WSW
Wind: WSW 33 mph , 54 km/h, Gust: 48 mph , 78 km/h
Temperature: 57°F , 14°C
Dew Point: 25°F , -4°C
Humidity: 29%
Barometer: 29.93 inHg , 1013.5 hPa
Clouds: Clear
Visibility: 7 miles , 11 km
2018/04/19 22:55 KVCV 192255Z 25029G42KT 7SM SKC 14/M04 A2993
 
KTSP - Tehachapi, California, USA
Distance from station: NNW 48mi, 77km
Updated: Thu, 19-Apr-2018 3:35pm PDT
Mostly cloudy
Mostly cloudy
 Wind from WNW
Wind: WNW 29 mph , 46 km/h, Gust: 41 mph , 67 km/h
Temperature: 46°F , 8°C
Wind Chill: 37°F , 3°C
Dew Point: 27°F , -3°C
Humidity: 46%
Barometer: 30.00 inHg , 1015.9 hPa
Clouds: Mostly cloudy
Visibility: 10 miles , 16 km
Cloud details: Partly cloudy 4600 ft
Mostly cloudy 5000 ft
2018/04/19 22:35 KTSP 192235Z AUTO 29025G36KT 10SM SCT046 BKN050 08/M03 A3000 RMK AO2